This is the latest recevied weather packets stored in our database for station/object K1KOF. If no packets are shown the sender has not sent any weather packets the latest 1 day(s).
| Time | Temp. | Humidity | Pressure | Rain* | Wind** | Luminosity | Snow |
|---|---|---|---|---|---|---|---|
| 1778089372 | 25.56° C | 68% | 1025 hPa | 0 mm | - | 673 W/m² | - |
| 1778088766 | 24.44° C | 72% | 1025.1 hPa | 0 mm | - | 449 W/m² | - |
| 1778087554 | 23.89° C | 75% | 1026 hPa | 0 mm | - | 279 W/m² | - |
| 1778086948 | 24.44° C | 75% | 1026 hPa | 0 mm | - | 423 W/m² | - |
| 1778085129 | 22.22° C | 81% | 1026 hPa | 0 mm | - | 219 W/m² | - |
| 1778084523 | 21.67° C | 82% | 1026.1 hPa | 0 mm | - | 184 W/m² | - |
| 1778084220 | 21.67° C | 81% | 1026.4 hPa | 0 mm | - | 160 W/m² | - |
| 1778082706 | 21.67° C | 83% | 1026.2 hPa | 0 mm | - | 312 W/m² | - |
| 1778081265 | 20.56° C | 85% | 1026.3 hPa | 0 mm | - | 71 W/m² | - |
| 1778080358 | 20° C | 85% | 1026 hPa | 0 mm | - | 168 W/m² | - |
| 1778080054 | 20° C | 85% | 1026 hPa | 0 mm | - | 177 W/m² | - |
| 1778077633 | 19.44° C | 85% | 1025.6 hPa | 0 mm | - | 128 W/m² | - |
| 1778077028 | 19.44° C | 86% | 1025.5 hPa | 0 mm | - | 210 W/m² | - |
| 1778075817 | 18.89° C | 86% | 1025.8 hPa | 0 mm | - | 152 W/m² | - |
| 1778075210 | 18.89° C | 87% | 1025.7 hPa | 0 mm | - | 148 W/m² | - |
| 1778074906 | 18.33° C | 87% | 1025.9 hPa | 0 mm | - | 109 W/m² | - |
| 1778073694 | 18.33° C | 87% | 1025.9 hPa | 0 mm | - | 88 W/m² | - |
| 1778073392 | 18.33° C | 87% | 1025.6 hPa | 0 mm | - | 95 W/m² | - |
| 1778073088 | 18.33° C | 88% | 1025.8 hPa | 0 mm | - | 139 W/m² | - |
| 1778072785 | 17.78° C | 88% | 1025.7 hPa | 0 mm | - | 149 W/m² | - |
| 1778071878 | 17.22° C | 89% | 1025.5 hPa | 0 mm | - | 93 W/m² | - |
| 1778069761 | 16.67° C | 90% | 1025.7 hPa | 0 mm | - | 42 W/m² | - |
| 1778069457 | 16.67° C | 89% | 1025.5 hPa | 0 mm | - | 33 W/m² | - |
| 1778069155 | 16.67° C | 89% | 1025.3 hPa | 0 mm | - | 32 W/m² | - |
| 1778068550 | 16.67° C | 89% | 1025.4 hPa | 0 mm | - | 45 W/m² | - |
* Rain latest hour (hover to see other rain measurements)
** Current wind speed in m/s (hover to see current wind gust speed)